sensor_id;sensor_type;location;lat;lon;timestamp;P1;durP1;ratioP1;P2;durP2;ratioP2
3975;SDS011;2002;48.812;9.180;2023-03-18T00:00:36;2.97;;;2.73;;
3975;SDS011;2002;48.812;9.180;2023-03-18T00:03:02;3.53;;;3.27;;
3975;SDS011;2002;48.812;9.180;2023-03-18T00:05:28;2.70;;;2.47;;
3975;SDS011;2002;48.812;9.180;2023-03-18T00:07:54;3.37;;;2.80;;
3975;SDS011;2002;48.812;9.180;2023-03-18T00:10:20;3.57;;;2.60;;
3975;SDS011;2002;48.812;9.180;2023-03-18T00:12:46;3.20;;;2.63;;
3975;SDS011;2002;48.812;9.180;2023-03-18T00:15:12;2.93;;;2.47;;
3975;SDS011;2002;48.812;9.180;2023-03-18T00:17:40;3.03;;;2.30;;
3975;SDS011;2002;48.812;9.180;2023-03-18T00:20:06;3.97;;;3.00;;
3975;SDS011;2002;48.812;9.180;2023-03-18T00:22:33;2.90;;;2.60;;
3975;SDS011;2002;48.812;9.180;2023-03-18T00:25:01;3.03;;;2.60;;
3975;SDS011;2002;48.812;9.180;2023-03-18T00:27:28;3.27;;;2.77;;
3975;SDS011;2002;48.812;9.180;2023-03-18T00:29:54;3.17;;;2.57;;
3975;SDS011;2002;48.812;9.180;2023-03-18T00:32:20;3.50;;;2.50;;
3975;SDS011;2002;48.812;9.180;2023-03-18T00:34:46;2.93;;;2.70;;
3975;SDS011;2002;48.812;9.180;2023-03-18T00:37:13;2.67;;;2.47;;
3975;SDS011;2002;48.812;9.180;2023-03-18T00:39:44;2.90;;;2.60;;
3975;SDS011;2002;48.812;9.180;2023-03-18T00:42:11;2.40;;;2.20;;
3975;SDS011;2002;48.812;9.180;2023-03-18T00:44:37;2.60;;;2.40;;
3975;SDS011;2002;48.812;9.180;2023-03-18T00:47:03;3.20;;;2.90;;
3975;SDS011;2002;48.812;9.180;2023-03-18T00:49:30;6.83;;;3.00;;
3975;SDS011;2002;48.812;9.180;2023-03-18T00:51:55;3.93;;;2.60;;
3975;SDS011;2002;48.812;9.180;2023-03-18T00:54:22;3.50;;;2.73;;
3975;SDS011;2002;48.812;9.180;2023-03-18T00:56:48;3.83;;;3.03;;
3975;SDS011;2002;48.812;9.180;2023-03-18T00:59:14;2.67;;;2.47;;
3975;SDS011;2002;48.812;9.180;2023-03-18T01:01:40;2.77;;;2.57;;
3975;SDS011;2002;48.812;9.180;2023-03-18T01:04:06;2.83;;;2.63;;
3975;SDS011;2002;48.812;9.180;2023-03-18T01:06:33;2.67;;;2.40;;
3975;SDS011;2002;48.812;9.180;2023-03-18T01:09:00;3.20;;;2.90;;
3975;SDS011;2002;48.812;9.180;2023-03-18T01:11:29;4.10;;;2.77;;
3975;SDS011;2002;48.812;9.180;2023-03-18T01:13:55;2.70;;;2.37;;
3975;SDS011;2002;48.812;9.180;2023-03-18T01:16:21;2.70;;;2.30;;
3975;SDS011;2002;48.812;9.180;2023-03-18T01:18:47;3.60;;;3.30;;
3975;SDS011;2002;48.812;9.180;2023-03-18T01:21:13;2.60;;;2.30;;
3975;SDS011;2002;48.812;9.180;2023-03-18T01:23:39;2.80;;;2.53;;
3975;SDS011;2002;48.812;9.180;2023-03-18T01:26:06;3.47;;;2.60;;
3975;SDS011;2002;48.812;9.180;2023-03-18T01:28:32;3.53;;;2.83;;
3975;SDS011;2002;48.812;9.180;2023-03-18T01:30:57;3.23;;;2.93;;
3975;SDS011;2002;48.812;9.180;2023-03-18T01:33:24;3.23;;;2.70;;
3975;SDS011;2002;48.812;9.180;2023-03-18T01:35:56;3.17;;;2.87;;
3975;SDS011;2002;48.812;9.180;2023-03-18T01:38:24;3.20;;;2.90;;
3975;SDS011;2002;48.812;9.180;2023-03-18T01:40:54;2.50;;;2.30;;
3975;SDS011;2002;48.812;9.180;2023-03-18T01:43:21;3.00;;;2.60;;
3975;SDS011;2002;48.812;9.180;2023-03-18T01:45:52;2.60;;;2.40;;
3975;SDS011;2002;48.812;9.180;2023-03-18T01:48:23;2.37;;;2.17;;
3975;SDS011;2002;48.812;9.180;2023-03-18T01:50:54;2.23;;;1.80;;
3975;SDS011;2002;48.812;9.180;2023-03-18T01:53:33;2.43;;;2.20;;
3975;SDS011;2002;48.812;9.180;2023-03-18T01:56:03;3.50;;;2.70;;
3975;SDS011;2002;48.812;9.180;2023-03-18T01:58:31;2.60;;;2.40;;
3975;SDS011;2002;48.812;9.180;2023-03-18T02:01:36;3.00;;;2.43;;
3975;SDS011;2002;48.812;9.180;2023-03-18T02:03:57;2.60;;;2.40;;
3975;SDS011;2002;48.812;9.180;2023-03-18T02:06:25;2.83;;;2.63;;
3975;SDS011;2002;48.812;9.180;2023-03-18T02:08:51;3.00;;;2.70;;
3975;SDS011;2002;48.812;9.180;2023-03-18T02:11:18;3.03;;;2.50;;
3975;SDS011;2002;48.812;9.180;2023-03-18T02:13:44;2.73;;;2.50;;
3975;SDS011;2002;48.812;9.180;2023-03-18T02:16:13;2.70;;;2.50;;
3975;SDS011;2002;48.812;9.180;2023-03-18T02:18:46;2.60;;;2.40;;
3975;SDS011;2002;48.812;9.180;2023-03-18T02:26:49;2.93;;;2.43;;
3975;SDS011;2002;48.812;9.180;2023-03-18T02:29:20;3.60;;;3.30;;
3975;SDS011;2002;48.812;9.180;2023-03-18T02:31:47;2.50;;;2.27;;
3975;SDS011;2002;48.812;9.180;2023-03-18T02:34:14;3.07;;;2.53;;
3975;SDS011;2002;48.812;9.180;2023-03-18T02:36:40;3.60;;;3.30;;
3975;SDS011;2002;48.812;9.180;2023-03-18T02:39:06;2.43;;;2.23;;
3975;SDS011;2002;48.812;9.180;2023-03-18T02:41:33;4.00;;;3.00;;
3975;SDS011;2002;48.812;9.180;2023-03-18T02:44:00;3.30;;;2.67;;
3975;SDS011;2002;48.812;9.180;2023-03-18T02:49:10;3.60;;;2.80;;
3975;SDS011;2002;48.812;9.180;2023-03-18T02:51:37;3.03;;;2.70;;
3975;SDS011;2002;48.812;9.180;2023-03-18T02:54:05;3.23;;;3.00;;
3975;SDS011;2002;48.812;9.180;2023-03-18T02:56:34;3.20;;;2.67;;
3975;SDS011;2002;48.812;9.180;2023-03-18T02:59:00;3.60;;;2.67;;
3975;SDS011;2002;48.812;9.180;2023-03-18T03:01:26;3.33;;;3.00;;
3975;SDS011;2002;48.812;9.180;2023-03-18T03:03:52;3.20;;;2.57;;
3975;SDS011;2002;48.812;9.180;2023-03-18T03:06:17;3.70;;;1.90;;
3975;SDS011;2002;48.812;9.180;2023-03-18T03:08:43;3.33;;;2.87;;
3975;SDS011;2002;48.812;9.180;2023-03-18T03:11:09;3.83;;;3.03;;
3975;SDS011;2002;48.812;9.180;2023-03-18T03:13:35;2.23;;;2.13;;
3975;SDS011;2002;48.812;9.180;2023-03-18T03:16:05;2.20;;;1.83;;
3975;SDS011;2002;48.812;9.180;2023-03-18T03:18:32;2.37;;;2.17;;
3975;SDS011;2002;48.812;9.180;2023-03-18T03:20:59;3.00;;;2.70;;
3975;SDS011;2002;48.812;9.180;2023-03-18T03:23:25;2.50;;;2.30;;
3975;SDS011;2002;48.812;9.180;2023-03-18T03:25:51;2.90;;;2.70;;
3975;SDS011;2002;48.812;9.180;2023-03-18T03:28:17;2.63;;;2.43;;
3975;SDS011;2002;48.812;9.180;2023-03-18T03:30:42;3.00;;;2.67;;
3975;SDS011;2002;48.812;9.180;2023-03-18T03:33:09;3.17;;;2.87;;
3975;SDS011;2002;48.812;9.180;2023-03-18T03:35:36;3.17;;;2.87;;
3975;SDS011;2002;48.812;9.180;2023-03-18T03:38:02;2.90;;;2.40;;
3975;SDS011;2002;48.812;9.180;2023-03-18T03:40:28;3.50;;;3.20;;
3975;SDS011;2002;48.812;9.180;2023-03-18T03:42:54;3.43;;;3.13;;
3975;SDS011;2002;48.812;9.180;2023-03-18T03:45:20;3.13;;;2.83;;
3975;SDS011;2002;48.812;9.180;2023-03-18T03:47:46;2.63;;;2.43;;
3975;SDS011;2002;48.812;9.180;2023-03-18T03:50:12;2.60;;;2.40;;
3975;SDS011;2002;48.812;9.180;2023-03-18T03:52:39;3.47;;;3.17;;
3975;SDS011;2002;48.812;9.180;2023-03-18T03:55:05;3.77;;;3.07;;
3975;SDS011;2002;48.812;9.180;2023-03-18T03:57:32;3.90;;;2.53;;
3975;SDS011;2002;48.812;9.180;2023-03-18T03:59:59;2.77;;;2.53;;
3975;SDS011;2002;48.812;9.180;2023-03-18T04:02:25;3.20;;;2.50;;
3975;SDS011;2002;48.812;9.180;2023-03-18T04:04:51;3.17;;;2.97;;
3975;SDS011;2002;48.812;9.180;2023-03-18T04:07:17;2.33;;;2.17;;
3975;SDS011;2002;48.812;9.180;2023-03-18T04:09:44;4.00;;;2.87;;
3975;SDS011;2002;48.812;9.180;2023-03-18T04:12:09;2.90;;;2.40;;
3975;SDS011;2002;48.812;9.180;2023-03-18T04:14:35;2.63;;;2.43;;
3975;SDS011;2002;48.812;9.180;2023-03-18T04:17:01;2.57;;;2.37;;
3975;SDS011;2002;48.812;9.180;2023-03-18T04:19:27;2.70;;;2.50;;
3975;SDS011;2002;48.812;9.180;2023-03-18T04:21:53;2.57;;;2.20;;
3975;SDS011;2002;48.812;9.180;2023-03-18T04:24:19;2.60;;;2.40;;
3975;SDS011;2002;48.812;9.180;2023-03-18T04:26:45;2.13;;;2.03;;
3975;SDS011;2002;48.812;9.180;2023-03-18T04:29:11;2.60;;;2.40;;
3975;SDS011;2002;48.812;9.180;2023-03-18T04:31:36;2.87;;;2.60;;
3975;SDS011;2002;48.812;9.180;2023-03-18T04:34:02;2.10;;;1.90;;
3975;SDS011;2002;48.812;9.180;2023-03-18T04:36:28;2.70;;;2.47;;
3975;SDS011;2002;48.812;9.180;2023-03-18T04:38:53;3.50;;;2.60;;
3975;SDS011;2002;48.812;9.180;2023-03-18T04:41:19;3.30;;;3.00;;
3975;SDS011;2002;48.812;9.180;2023-03-18T04:43:45;3.27;;;2.70;;
3975;SDS011;2002;48.812;9.180;2023-03-18T04:46:11;3.10;;;2.40;;
3975;SDS011;2002;48.812;9.180;2023-03-18T04:48:37;2.37;;;2.17;;
3975;SDS011;2002;48.812;9.180;2023-03-18T04:51:03;2.37;;;2.17;;
3975;SDS011;2002;48.812;9.180;2023-03-18T04:53:29;3.10;;;2.80;;
3975;SDS011;2002;48.812;9.180;2023-03-18T04:55:55;2.40;;;2.10;;
3975;SDS011;2002;48.812;9.180;2023-03-18T04:58:20;2.93;;;2.63;;
3975;SDS011;2002;48.812;9.180;2023-03-18T05:00:47;2.67;;;2.07;;
3975;SDS011;2002;48.812;9.180;2023-03-18T05:03:12;4.70;;;2.83;;
3975;SDS011;2002;48.812;9.180;2023-03-18T05:05:38;3.03;;;2.37;;
3975;SDS011;2002;48.812;9.180;2023-03-18T05:08:04;3.00;;;2.70;;
3975;SDS011;2002;48.812;9.180;2023-03-18T05:10:29;2.70;;;2.30;;
3975;SDS011;2002;48.812;9.180;2023-03-18T05:12:55;3.40;;;3.10;;
3975;SDS011;2002;48.812;9.180;2023-03-18T05:15:20;2.87;;;2.67;;
3975;SDS011;2002;48.812;9.180;2023-03-18T05:17:46;2.70;;;2.50;;
3975;SDS011;2002;48.812;9.180;2023-03-18T05:20:12;2.67;;;2.27;;
3975;SDS011;2002;48.812;9.180;2023-03-18T05:22:37;3.43;;;3.13;;
3975;SDS011;2002;48.812;9.180;2023-03-18T05:25:04;2.30;;;2.10;;
3975;SDS011;2002;48.812;9.180;2023-03-18T05:27:30;2.87;;;2.60;;
3975;SDS011;2002;48.812;9.180;2023-03-18T05:29:56;3.10;;;2.63;;
3975;SDS011;2002;48.812;9.180;2023-03-18T05:32:22;2.93;;;2.60;;
3975;SDS011;2002;48.812;9.180;2023-03-18T05:34:47;2.73;;;2.50;;
3975;SDS011;2002;48.812;9.180;2023-03-18T05:37:13;2.87;;;2.53;;
3975;SDS011;2002;48.812;9.180;2023-03-18T05:39:39;3.10;;;2.83;;
3975;SDS011;2002;48.812;9.180;2023-03-18T05:42:06;2.53;;;2.27;;
3975;SDS011;2002;48.812;9.180;2023-03-18T05:44:32;3.03;;;2.53;;
3975;SDS011;2002;48.812;9.180;2023-03-18T05:46:58;3.33;;;2.80;;
3975;SDS011;2002;48.812;9.180;2023-03-18T05:49:24;2.90;;;2.57;;
3975;SDS011;2002;48.812;9.180;2023-03-18T05:51:51;2.80;;;2.60;;
3975;SDS011;2002;48.812;9.180;2023-03-18T05:54:16;3.10;;;2.20;;
3975;SDS011;2002;48.812;9.180;2023-03-18T05:56:42;2.93;;;2.60;;
3975;SDS011;2002;48.812;9.180;2023-03-18T05:59:09;3.10;;;2.80;;
3975;SDS011;2002;48.812;9.180;2023-03-18T06:01:35;2.60;;;2.40;;
3975;SDS011;2002;48.812;9.180;2023-03-18T06:04:01;3.17;;;2.87;;
3975;SDS011;2002;48.812;9.180;2023-03-18T06:06:29;2.77;;;2.57;;
3975;SDS011;2002;48.812;9.180;2023-03-18T06:08:54;2.60;;;2.40;;
3975;SDS011;2002;48.812;9.180;2023-03-18T06:11:20;2.20;;;2.00;;
3975;SDS011;2002;48.812;9.180;2023-03-18T06:13:46;3.90;;;2.73;;
3975;SDS011;2002;48.812;9.180;2023-03-18T06:16:11;2.90;;;2.70;;
3975;SDS011;2002;48.812;9.180;2023-03-18T06:18:38;2.60;;;2.40;;
3975;SDS011;2002;48.812;9.180;2023-03-18T06:21:04;2.80;;;2.50;;
3975;SDS011;2002;48.812;9.180;2023-03-18T06:23:33;2.20;;;2.00;;
3975;SDS011;2002;48.812;9.180;2023-03-18T06:25:58;2.17;;;2.03;;
3975;SDS011;2002;48.812;9.180;2023-03-18T06:28:24;2.60;;;2.27;;
3975;SDS011;2002;48.812;9.180;2023-03-18T06:30:50;2.67;;;2.40;;
3975;SDS011;2002;48.812;9.180;2023-03-18T06:33:19;2.23;;;2.03;;
3975;SDS011;2002;48.812;9.180;2023-03-18T06:35:46;3.00;;;2.70;;
3975;SDS011;2002;48.812;9.180;2023-03-18T06:38:13;2.93;;;2.40;;
3975;SDS011;2002;48.812;9.180;2023-03-18T06:40:40;2.67;;;2.40;;
3975;SDS011;2002;48.812;9.180;2023-03-18T06:43:07;2.57;;;2.13;;
3975;SDS011;2002;48.812;9.180;2023-03-18T06:45:33;2.90;;;2.40;;
3975;SDS011;2002;48.812;9.180;2023-03-18T06:47:59;3.20;;;1.93;;
3975;SDS011;2002;48.812;9.180;2023-03-18T06:50:25;2.63;;;2.43;;
3975;SDS011;2002;48.812;9.180;2023-03-18T06:52:51;2.33;;;2.13;;
3975;SDS011;2002;48.812;9.180;2023-03-18T06:55:17;2.47;;;2.27;;
3975;SDS011;2002;48.812;9.180;2023-03-18T06:57:43;2.33;;;2.13;;
3975;SDS011;2002;48.812;9.180;2023-03-18T07:00:10;2.40;;;2.20;;
3975;SDS011;2002;48.812;9.180;2023-03-18T07:02:37;2.60;;;2.20;;
3975;SDS011;2002;48.812;9.180;2023-03-18T07:05:03;2.43;;;1.90;;
3975;SDS011;2002;48.812;9.180;2023-03-18T07:07:29;2.00;;;1.80;;
3975;SDS011;2002;48.812;9.180;2023-03-18T07:09:55;3.10;;;2.60;;
3975;SDS011;2002;48.812;9.180;2023-03-18T07:12:20;3.00;;;2.70;;
3975;SDS011;2002;48.812;9.180;2023-03-18T07:14:46;2.77;;;2.57;;
3975;SDS011;2002;48.812;9.180;2023-03-18T07:17:12;2.90;;;2.30;;
3975;SDS011;2002;48.812;9.180;2023-03-18T07:19:38;2.60;;;2.40;;
3975;SDS011;2002;48.812;9.180;2023-03-18T07:22:04;2.93;;;2.10;;
3975;SDS011;2002;48.812;9.180;2023-03-18T07:24:30;3.00;;;2.70;;
3975;SDS011;2002;48.812;9.180;2023-03-18T07:26:55;3.43;;;2.60;;
3975;SDS011;2002;48.812;9.180;2023-03-18T07:29:21;2.30;;;2.10;;
3975;SDS011;2002;48.812;9.180;2023-03-18T07:31:47;2.50;;;2.30;;
3975;SDS011;2002;48.812;9.180;2023-03-18T07:34:13;3.00;;;2.70;;
3975;SDS011;2002;48.812;9.180;2023-03-18T07:36:41;2.90;;;2.50;;
3975;SDS011;2002;48.812;9.180;2023-03-18T07:39:07;2.30;;;2.10;;
3975;SDS011;2002;48.812;9.180;2023-03-18T07:41:34;2.47;;;2.10;;
3975;SDS011;2002;48.812;9.180;2023-03-18T07:44:00;2.27;;;2.10;;
3975;SDS011;2002;48.812;9.180;2023-03-18T07:46:27;2.73;;;2.20;;
3975;SDS011;2002;48.812;9.180;2023-03-18T07:48:52;2.50;;;2.20;;
3975;SDS011;2002;48.812;9.180;2023-03-18T07:51:18;2.90;;;2.70;;
3975;SDS011;2002;48.812;9.180;2023-03-18T07:53:43;2.40;;;2.20;;
3975;SDS011;2002;48.812;9.180;2023-03-18T07:56:09;2.33;;;1.93;;
3975;SDS011;2002;48.812;9.180;2023-03-18T07:58:36;2.30;;;1.90;;
3975;SDS011;2002;48.812;9.180;2023-03-18T08:01:02;2.50;;;2.30;;
3975;SDS011;2002;48.812;9.180;2023-03-18T08:03:28;2.70;;;2.50;;
3975;SDS011;2002;48.812;9.180;2023-03-18T08:05:54;2.50;;;2.30;;
3975;SDS011;2002;48.812;9.180;2023-03-18T08:08:20;3.73;;;2.53;;
3975;SDS011;2002;48.812;9.180;2023-03-18T08:10:46;3.00;;;2.57;;
3975;SDS011;2002;48.812;9.180;2023-03-18T08:13:12;2.20;;;2.00;;
3975;SDS011;2002;48.812;9.180;2023-03-18T08:15:38;2.87;;;2.67;;
3975;SDS011;2002;48.812;9.180;2023-03-18T08:18:04;3.40;;;2.30;;
3975;SDS011;2002;48.812;9.180;2023-03-18T08:20:30;2.13;;;2.03;;
3975;SDS011;2002;48.812;9.180;2023-03-18T08:22:56;2.50;;;2.30;;
3975;SDS011;2002;48.812;9.180;2023-03-18T08:25:21;2.43;;;2.23;;
3975;SDS011;2002;48.812;9.180;2023-03-18T08:27:47;2.50;;;2.30;;
3975;SDS011;2002;48.812;9.180;2023-03-18T08:30:14;2.90;;;2.20;;
3975;SDS011;2002;48.812;9.180;2023-03-18T08:32:40;2.60;;;2.37;;
3975;SDS011;2002;48.812;9.180;2023-03-18T08:35:06;3.50;;;2.37;;
3975;SDS011;2002;48.812;9.180;2023-03-18T08:37:33;2.40;;;2.20;;
3975;SDS011;2002;48.812;9.180;2023-03-18T08:40:00;2.30;;;2.10;;
3975;SDS011;2002;48.812;9.180;2023-03-18T08:42:26;3.00;;;2.53;;
3975;SDS011;2002;48.812;9.180;2023-03-18T08:44:52;2.50;;;2.07;;
3975;SDS011;2002;48.812;9.180;2023-03-18T08:47:18;2.27;;;2.07;;
3975;SDS011;2002;48.812;9.180;2023-03-18T08:49:45;2.30;;;2.03;;
3975;SDS011;2002;48.812;9.180;2023-03-18T08:52:10;2.50;;;2.30;;
3975;SDS011;2002;48.812;9.180;2023-03-18T08:54:36;3.60;;;1.93;;
3975;SDS011;2002;48.812;9.180;2023-03-18T08:57:01;2.33;;;2.13;;
3975;SDS011;2002;48.812;9.180;2023-03-18T08:59:27;2.47;;;1.93;;
3975;SDS011;2002;48.812;9.180;2023-03-18T09:01:53;2.13;;;1.93;;
3975;SDS011;2002;48.812;9.180;2023-03-18T09:04:18;2.77;;;2.43;;
3975;SDS011;2002;48.812;9.180;2023-03-18T09:06:44;2.57;;;2.30;;
3975;SDS011;2002;48.812;9.180;2023-03-18T09:09:10;1.90;;;1.80;;
3975;SDS011;2002;48.812;9.180;2023-03-18T09:11:36;2.20;;;2.00;;
3975;SDS011;2002;48.812;9.180;2023-03-18T09:14:03;2.20;;;2.00;;
3975;SDS011;2002;48.812;9.180;2023-03-18T09:16:29;1.77;;;1.67;;
3975;SDS011;2002;48.812;9.180;2023-03-18T09:18:54;2.70;;;2.40;;
3975;SDS011;2002;48.812;9.180;2023-03-18T09:21:20;2.30;;;2.00;;
3975;SDS011;2002;48.812;9.180;2023-03-18T09:23:46;1.80;;;1.70;;
3975;SDS011;2002;48.812;9.180;2023-03-18T09:26:13;2.30;;;1.97;;
3975;SDS011;2002;48.812;9.180;2023-03-18T09:28:39;2.20;;;2.00;;
3975;SDS011;2002;48.812;9.180;2023-03-18T09:31:04;2.90;;;2.60;;
3975;SDS011;2002;48.812;9.180;2023-03-18T09:33:30;2.10;;;1.83;;
3975;SDS011;2002;48.812;9.180;2023-03-18T09:35:56;2.20;;;2.00;;
3975;SDS011;2002;48.812;9.180;2023-03-18T09:38:22;2.27;;;2.07;;
3975;SDS011;2002;48.812;9.180;2023-03-18T09:40:54;2.30;;;2.17;;
3975;SDS011;2002;48.812;9.180;2023-03-18T09:49:41;2.30;;;2.10;;
3975;SDS011;2002;48.812;9.180;2023-03-18T09:52:26;1.90;;;1.80;;
3975;SDS011;2002;48.812;9.180;2023-03-18T09:55:00;2.00;;;1.80;;
3975;SDS011;2002;48.812;9.180;2023-03-18T09:57:37;2.30;;;2.10;;
3975;SDS011;2002;48.812;9.180;2023-03-18T10:00:20;2.90;;;2.30;;
3975;SDS011;2002;48.812;9.180;2023-03-18T10:05:30;2.13;;;1.77;;
3975;SDS011;2002;48.812;9.180;2023-03-18T10:08:12;2.40;;;2.20;;
3975;SDS011;2002;48.812;9.180;2023-03-18T10:11:02;2.17;;;1.90;;
3975;SDS011;2002;48.812;9.180;2023-03-18T10:16:22;3.00;;;2.80;;
3975;SDS011;2002;48.812;9.180;2023-03-18T10:18:53;1.90;;;1.80;;
3975;SDS011;2002;48.812;9.180;2023-03-18T10:32:37;2.30;;;2.10;;
3975;SDS011;2002;48.812;9.180;2023-03-18T10:38:02;2.60;;;2.40;;
3975;SDS011;2002;48.812;9.180;2023-03-18T10:40:36;2.10;;;1.90;;
3975;SDS011;2002;48.812;9.180;2023-03-18T10:43:05;2.53;;;2.33;;
3975;SDS011;2002;48.812;9.180;2023-03-18T10:45:40;2.30;;;2.00;;
3975;SDS011;2002;48.812;9.180;2023-03-18T10:51:17;2.10;;;1.80;;
3975;SDS011;2002;48.812;9.180;2023-03-18T10:54:04;2.47;;;2.27;;
3975;SDS011;2002;48.812;9.180;2023-03-18T10:56:43;2.10;;;2.00;;
3975;SDS011;2002;48.812;9.180;2023-03-18T10:59:12;3.03;;;2.37;;
3975;SDS011;2002;48.812;9.180;2023-03-18T11:01:40;2.20;;;2.00;;
3975;SDS011;2002;48.812;9.180;2023-03-18T11:04:11;1.90;;;1.80;;
3975;SDS011;2002;48.812;9.180;2023-03-18T11:09:12;2.30;;;2.10;;
3975;SDS011;2002;48.812;9.180;2023-03-18T11:11:43;2.23;;;1.97;;
3975;SDS011;2002;48.812;9.180;2023-03-18T11:14:14;2.37;;;2.10;;
3975;SDS011;2002;48.812;9.180;2023-03-18T11:19:46;1.87;;;1.77;;
3975;SDS011;2002;48.812;9.180;2023-03-18T11:24:42;2.40;;;2.20;;
3975;SDS011;2002;48.812;9.180;2023-03-18T11:29:43;2.37;;;2.03;;
3975;SDS011;2002;48.812;9.180;2023-03-18T11:32:32;1.83;;;1.73;;
3975;SDS011;2002;48.812;9.180;2023-03-18T11:35:01;2.50;;;2.30;;
3975;SDS011;2002;48.812;9.180;2023-03-18T11:37:30;2.60;;;2.40;;
3975;SDS011;2002;48.812;9.180;2023-03-18T11:42:38;2.27;;;1.83;;
3975;SDS011;2002;48.812;9.180;2023-03-18T11:45:07;3.00;;;2.10;;
3975;SDS011;2002;48.812;9.180;2023-03-18T11:48:00;1.57;;;1.47;;
3975;SDS011;2002;48.812;9.180;2023-03-18T11:50:29;1.90;;;1.80;;
3975;SDS011;2002;48.812;9.180;2023-03-18T11:53:26;1.60;;;1.50;;
3975;SDS011;2002;48.812;9.180;2023-03-18T11:57:10;3.03;;;2.30;;
3975;SDS011;2002;48.812;9.180;2023-03-18T12:01:55;1.80;;;1.50;;
3975;SDS011;2002;48.812;9.180;2023-03-18T12:10:15;2.03;;;1.80;;
3975;SDS011;2002;48.812;9.180;2023-03-18T12:15:19;1.73;;;1.63;;
3975;SDS011;2002;48.812;9.180;2023-03-18T12:17:56;1.90;;;1.70;;
3975;SDS011;2002;48.812;9.180;2023-03-18T12:21:33;2.20;;;1.80;;
3975;SDS011;2002;48.812;9.180;2023-03-18T12:26:43;1.90;;;1.80;;
3975;SDS011;2002;48.812;9.180;2023-03-18T12:37:27;1.70;;;1.60;;
3975;SDS011;2002;48.812;9.180;2023-03-18T12:40:15;2.00;;;1.90;;
3975;SDS011;2002;48.812;9.180;2023-03-18T12:45:42;1.80;;;1.63;;
3975;SDS011;2002;48.812;9.180;2023-03-18T12:48:13;1.83;;;1.63;;
3975;SDS011;2002;48.812;9.180;2023-03-18T12:50:42;2.77;;;1.67;;
3975;SDS011;2002;48.812;9.180;2023-03-18T12:55:51;2.13;;;1.90;;
3975;SDS011;2002;48.812;9.180;2023-03-18T12:58:27;1.50;;;1.40;;
3975;SDS011;2002;48.812;9.180;2023-03-18T13:01:06;1.67;;;1.33;;
3975;SDS011;2002;48.812;9.180;2023-03-18T13:03:37;2.20;;;1.73;;
3975;SDS011;2002;48.812;9.180;2023-03-18T13:09:06;1.57;;;1.47;;
3975;SDS011;2002;48.812;9.180;2023-03-18T13:17:13;2.00;;;1.90;;
3975;SDS011;2002;48.812;9.180;2023-03-18T13:19:44;2.13;;;1.70;;
3975;SDS011;2002;48.812;9.180;2023-03-18T13:24:59;1.67;;;1.50;;
3975;SDS011;2002;48.812;9.180;2023-03-18T13:27:40;1.57;;;1.47;;
3975;SDS011;2002;48.812;9.180;2023-03-18T13:30:39;1.80;;;1.63;;
3975;SDS011;2002;48.812;9.180;2023-03-18T13:36:56;1.67;;;1.57;;
3975;SDS011;2002;48.812;9.180;2023-03-18T13:42:29;1.87;;;1.70;;
3975;SDS011;2002;48.812;9.180;2023-03-18T13:44:59;1.70;;;1.60;;
3975;SDS011;2002;48.812;9.180;2023-03-18T13:47:40;1.50;;;1.40;;
3975;SDS011;2002;48.812;9.180;2023-03-18T13:52:45;2.17;;;1.97;;
3975;SDS011;2002;48.812;9.180;2023-03-18T13:57:57;2.07;;;1.93;;
3975;SDS011;2002;48.812;9.180;2023-03-18T14:00:42;2.57;;;2.37;;
3975;SDS011;2002;48.812;9.180;2023-03-18T14:03:26;2.30;;;2.10;;
3975;SDS011;2002;48.812;9.180;2023-03-18T14:06:17;1.87;;;1.73;;
3975;SDS011;2002;48.812;9.180;2023-03-18T14:08:47;1.97;;;1.77;;
3975;SDS011;2002;48.812;9.180;2023-03-18T14:19:06;2.17;;;1.93;;
3975;SDS011;2002;48.812;9.180;2023-03-18T14:22:14;1.63;;;1.50;;
3975;SDS011;2002;48.812;9.180;2023-03-18T14:24:37;2.27;;;2.07;;
3975;SDS011;2002;48.812;9.180;2023-03-18T14:29:45;1.57;;;1.47;;
3975;SDS011;2002;48.812;9.180;2023-03-18T14:35:00;1.50;;;1.40;;
3975;SDS011;2002;48.812;9.180;2023-03-18T14:37:54;2.30;;;1.77;;
3975;SDS011;2002;48.812;9.180;2023-03-18T14:40:33;1.80;;;1.40;;
3975;SDS011;2002;48.812;9.180;2023-03-18T14:43:05;2.00;;;1.80;;
3975;SDS011;2002;48.812;9.180;2023-03-18T14:45:35;1.67;;;1.57;;
3975;SDS011;2002;48.812;9.180;2023-03-18T14:48:06;1.73;;;1.60;;
3975;SDS011;2002;48.812;9.180;2023-03-18T14:50:44;1.93;;;1.40;;
3975;SDS011;2002;48.812;9.180;2023-03-18T14:55:46;1.73;;;1.63;;
3975;SDS011;2002;48.812;9.180;2023-03-18T14:58:17;2.20;;;2.00;;
3975;SDS011;2002;48.812;9.180;2023-03-18T15:00:44;1.80;;;1.70;;
3975;SDS011;2002;48.812;9.180;2023-03-18T15:03:20;2.10;;;1.90;;
3975;SDS011;2002;48.812;9.180;2023-03-18T15:05:48;1.43;;;1.33;;
3975;SDS011;2002;48.812;9.180;2023-03-18T15:08:19;1.23;;;1.13;;
3975;SDS011;2002;48.812;9.180;2023-03-18T15:10:49;2.03;;;1.83;;
3975;SDS011;2002;48.812;9.180;2023-03-18T15:13:16;1.70;;;1.60;;
3975;SDS011;2002;48.812;9.180;2023-03-18T15:15:46;1.30;;;1.20;;
3975;SDS011;2002;48.812;9.180;2023-03-18T15:18:21;1.77;;;1.57;;
3975;SDS011;2002;48.812;9.180;2023-03-18T15:21:00;2.00;;;1.60;;
3975;SDS011;2002;48.812;9.180;2023-03-18T15:23:30;1.77;;;1.67;;
3975;SDS011;2002;48.812;9.180;2023-03-18T15:26:05;1.90;;;1.70;;
3975;SDS011;2002;48.812;9.180;2023-03-18T15:28:39;1.67;;;1.57;;
3975;SDS011;2002;48.812;9.180;2023-03-18T15:31:04;1.63;;;1.53;;
3975;SDS011;2002;48.812;9.180;2023-03-18T15:33:36;1.70;;;1.60;;
3975;SDS011;2002;48.812;9.180;2023-03-18T15:36:06;2.13;;;2.00;;
3975;SDS011;2002;48.812;9.180;2023-03-18T15:38:47;1.70;;;1.60;;
3975;SDS011;2002;48.812;9.180;2023-03-18T15:41:14;1.40;;;1.30;;
3975;SDS011;2002;48.812;9.180;2023-03-18T15:43:45;2.00;;;1.53;;
3975;SDS011;2002;48.812;9.180;2023-03-18T15:46:14;2.00;;;1.67;;
3975;SDS011;2002;48.812;9.180;2023-03-18T15:48:45;1.57;;;1.47;;
3975;SDS011;2002;48.812;9.180;2023-03-18T15:53:54;1.33;;;1.23;;
3975;SDS011;2002;48.812;9.180;2023-03-18T15:56:28;2.00;;;1.77;;
3975;SDS011;2002;48.812;9.180;2023-03-18T15:58:56;1.60;;;1.50;;
3975;SDS011;2002;48.812;9.180;2023-03-18T16:01:37;1.70;;;1.60;;
3975;SDS011;2002;48.812;9.180;2023-03-18T16:04:04;1.77;;;1.50;;
3975;SDS011;2002;48.812;9.180;2023-03-18T16:06:32;1.50;;;1.40;;
3975;SDS011;2002;48.812;9.180;2023-03-18T16:08:59;1.90;;;1.70;;
3975;SDS011;2002;48.812;9.180;2023-03-18T16:11:25;2.20;;;2.07;;
3975;SDS011;2002;48.812;9.180;2023-03-18T16:13:51;1.60;;;1.50;;
3975;SDS011;2002;48.812;9.180;2023-03-18T16:16:20;1.60;;;1.30;;
3975;SDS011;2002;48.812;9.180;2023-03-18T16:18:50;1.77;;;1.60;;
3975;SDS011;2002;48.812;9.180;2023-03-18T16:21:16;1.70;;;1.53;;
3975;SDS011;2002;48.812;9.180;2023-03-18T16:23:42;1.67;;;1.47;;
3975;SDS011;2002;48.812;9.180;2023-03-18T16:26:10;2.10;;;1.60;;
3975;SDS011;2002;48.812;9.180;2023-03-18T16:28:40;1.70;;;1.50;;
3975;SDS011;2002;48.812;9.180;2023-03-18T16:31:06;1.50;;;1.40;;
3975;SDS011;2002;48.812;9.180;2023-03-18T16:33:32;2.17;;;1.97;;
3975;SDS011;2002;48.812;9.180;2023-03-18T16:35:59;1.47;;;1.37;;
3975;SDS011;2002;48.812;9.180;2023-03-18T16:38:26;1.67;;;1.57;;
3975;SDS011;2002;48.812;9.180;2023-03-18T16:40:54;1.80;;;1.70;;
3975;SDS011;2002;48.812;9.180;2023-03-18T16:43:22;1.83;;;1.60;;
3975;SDS011;2002;48.812;9.180;2023-03-18T16:45:53;1.60;;;1.50;;
3975;SDS011;2002;48.812;9.180;2023-03-18T16:48:23;1.80;;;1.70;;
3975;SDS011;2002;48.812;9.180;2023-03-18T16:50:50;1.30;;;1.20;;
3975;SDS011;2002;48.812;9.180;2023-03-18T16:53:21;2.07;;;1.60;;
3975;SDS011;2002;48.812;9.180;2023-03-18T16:55:49;1.47;;;1.37;;
3975;SDS011;2002;48.812;9.180;2023-03-18T16:58:19;1.57;;;1.43;;
3975;SDS011;2002;48.812;9.180;2023-03-18T17:00:53;2.00;;;1.33;;
3975;SDS011;2002;48.812;9.180;2023-03-18T17:03:19;1.60;;;1.50;;
3975;SDS011;2002;48.812;9.180;2023-03-18T17:05:46;1.73;;;1.60;;
3975;SDS011;2002;48.812;9.180;2023-03-18T17:08:14;1.33;;;1.20;;
3975;SDS011;2002;48.812;9.180;2023-03-18T17:10:41;1.90;;;1.50;;
3975;SDS011;2002;48.812;9.180;2023-03-18T17:13:08;1.97;;;1.70;;
3975;SDS011;2002;48.812;9.180;2023-03-18T17:15:40;2.03;;;1.80;;
3975;SDS011;2002;48.812;9.180;2023-03-18T17:18:10;1.83;;;1.63;;
3975;SDS011;2002;48.812;9.180;2023-03-18T17:20:39;1.93;;;1.60;;
3975;SDS011;2002;48.812;9.180;2023-03-18T17:23:05;1.60;;;1.50;;
3975;SDS011;2002;48.812;9.180;2023-03-18T17:25:33;1.50;;;1.40;;